createdAt,value
2018-03-03T00:00:10.185Z,78.60
2018-03-03T00:00:43.897Z,79.00
2018-03-03T00:01:18.342Z,78.80
2018-03-03T00:01:52.055Z,78.50
2018-03-03T00:02:25.740Z,79.50
2018-03-03T00:02:59.415Z,78.50
2018-03-03T00:03:33.095Z,78.50
2018-03-03T00:04:06.778Z,78.60
2018-03-03T00:04:40.459Z,78.10
2018-03-03T00:05:14.147Z,77.80
2018-03-03T00:05:47.823Z,78.80
2018-03-03T00:06:22.281Z,78.40
2018-03-03T00:06:55.989Z,78.00
2018-03-03T00:07:29.682Z,78.70
2018-03-03T00:08:03.342Z,78.00
2018-03-03T00:08:37.031Z,78.50
2018-03-03T00:09:10.716Z,78.20
2018-03-03T00:09:44.406Z,78.40
2018-03-03T00:10:18.076Z,78.90
2018-03-03T00:10:51.754Z,78.10
2018-03-03T00:11:25.436Z,78.40
2018-03-03T00:11:59.902Z,78.70
2018-03-03T00:12:33.583Z,78.40
2018-03-03T00:13:07.258Z,78.20
2018-03-03T00:13:40.933Z,78.60
2018-03-03T00:14:14.614Z,78.80
2018-03-03T00:14:48.306Z,78.50
2018-03-03T00:15:21.998Z,78.10
2018-03-03T00:15:56.659Z,77.80
2018-03-03T00:16:30.292Z,77.40
2018-03-03T00:17:04.762Z,78.10
2018-03-03T00:17:38.449Z,77.90
2018-03-03T00:18:12.152Z,78.70
2018-03-03T00:18:45.867Z,78.30
2018-03-03T00:19:20.314Z,78.40
2018-03-03T00:19:53.994Z,78.10
2018-03-03T00:20:27.664Z,78.80
2018-03-03T00:21:02.111Z,79.00
2018-03-03T00:21:35.791Z,78.40
2018-03-03T00:22:09.137Z,78.50
2018-03-03T00:22:41.978Z,78.30
2018-03-03T00:23:15.654Z,78.60
2018-03-03T00:23:49.341Z,78.70
2018-03-03T00:24:23.016Z,79.00
2018-03-03T00:24:56.703Z,78.60
2018-03-03T00:25:30.359Z,79.40
2018-03-03T00:26:04.062Z,79.70
2018-03-03T00:26:37.743Z,79.40
2018-03-03T00:27:11.466Z,78.70
2018-03-03T00:27:44.798Z,78.60
2018-03-03T00:28:19.245Z,79.20
2018-03-03T00:28:52.922Z,78.60
2018-03-03T00:29:26.605Z,79.10
2018-03-03T00:30:00.298Z,78.50
2018-03-03T00:30:34.037Z,78.20
2018-03-03T00:31:07.697Z,78.60
2018-03-03T00:31:41.392Z,78.70
2018-03-03T00:32:15.082Z,78.80
2018-03-03T00:32:48.750Z,78.90
2018-03-03T00:33:22.440Z,79.00
2018-03-03T00:33:56.138Z,79.20
2018-03-03T00:34:30.763Z,78.50
2018-03-03T00:35:04.448Z,78.20
2018-03-03T00:35:38.121Z,78.60
2018-03-03T00:36:11.797Z,78.40
2018-03-03T00:36:46.293Z,78.60
2018-03-03T00:37:20.762Z,79.30
2018-03-03T00:37:54.106Z,78.00
2018-03-03T00:38:27.794Z,78.50
2018-03-03T00:39:01.476Z,78.50
2018-03-03T00:39:35.935Z,78.40
2018-03-03T00:40:09.617Z,78.00
2018-03-03T00:40:43.316Z,78.70
2018-03-03T00:41:16.996Z,78.30
2018-03-03T00:41:50.678Z,78.80
2018-03-03T00:42:24.390Z,78.70
2018-03-03T00:42:58.052Z,78.20
2018-03-03T00:43:31.720Z,78.30
2018-03-03T00:44:05.408Z,78.60
2018-03-03T00:44:39.101Z,78.60
2018-03-03T00:45:12.798Z,78.70
2018-03-03T00:45:46.481Z,78.80
2018-03-03T00:46:20.146Z,78.60
2018-03-03T00:46:53.858Z,78.10
2018-03-03T00:47:27.556Z,78.80
2018-03-03T00:48:01.259Z,78.70
2018-03-03T00:48:34.944Z,78.60
2018-03-03T00:49:08.614Z,79.30
2018-03-03T00:49:43.064Z,79.20
2018-03-03T00:50:16.748Z,78.80
2018-03-03T00:50:50.437Z,79.20
2018-03-03T00:51:24.117Z,80.00
2018-03-03T00:51:57.798Z,80.50
2018-03-03T00:52:31.506Z,79.90
2018-03-03T00:53:04.911Z,79.70
2018-03-03T00:53:38.588Z,79.90
2018-03-03T00:54:12.270Z,79.40
2018-03-03T00:54:45.957Z,78.90
2018-03-03T00:55:19.675Z,79.10
2018-03-03T00:55:53.362Z,79.00
2018-03-03T00:56:27.034Z,78.80
2018-03-03T00:57:00.714Z,78.80
2018-03-03T00:57:34.427Z,78.30
2018-03-03T00:58:08.285Z,77.70
2018-03-03T00:58:41.956Z,78.30
2018-03-03T00:59:16.411Z,78.30
2018-03-03T00:59:50.086Z,77.80
2018-03-03T01:00:23.758Z,78.70
2018-03-03T01:00:57.434Z,78.90
2018-03-03T01:01:31.882Z,78.90
2018-03-03T01:02:05.586Z,78.40
2018-03-03T01:02:39.295Z,78.70
2018-03-03T01:03:12.978Z,78.90
2018-03-03T01:03:46.671Z,78.80
2018-03-03T01:04:20.360Z,79.40
2018-03-03T01:04:54.027Z,79.20
2018-03-03T01:05:27.714Z,79.10
2018-03-03T01:06:01.398Z,79.40
2018-03-03T01:06:35.078Z,79.60
2018-03-03T01:07:08.799Z,79.40
2018-03-03T01:07:42.502Z,79.00
2018-03-03T01:08:16.163Z,78.90
2018-03-03T01:08:49.849Z,78.80
2018-03-03T01:09:23.539Z,78.90
2018-03-03T01:09:57.218Z,79.10
2018-03-03T01:10:30.904Z,79.00
2018-03-03T01:11:04.599Z,79.30
2018-03-03T01:11:38.281Z,79.20
2018-03-03T01:12:11.969Z,79.20
2018-03-03T01:12:45.660Z,80.60
2018-03-03T01:13:19.350Z,80.50
2018-03-03T01:13:53.024Z,80.70
2018-03-03T01:14:26.506Z,80.00
2018-03-03T01:15:00.185Z,80.20
2018-03-03T01:15:34.630Z,80.60
2018-03-03T01:16:08.333Z,80.30
2018-03-03T01:16:42.026Z,80.70
2018-03-03T01:17:15.719Z,80.70
2018-03-03T01:17:49.449Z,80.60
2018-03-03T01:18:23.889Z,80.50
2018-03-03T01:18:57.568Z,80.10
2018-03-03T01:19:31.254Z,80.60
2018-03-03T01:20:04.924Z,80.30
2018-03-03T01:20:39.381Z,80.20
2018-03-03T01:21:13.057Z,80.00
2018-03-03T01:21:46.729Z,80.60
2018-03-03T01:22:20.408Z,80.60
2018-03-03T01:22:54.862Z,81.10
2018-03-03T01:23:28.541Z,80.50
2018-03-03T01:24:02.222Z,80.90
2018-03-03T01:24:36.741Z,81.10
2018-03-03T01:25:10.420Z,81.00
2018-03-03T01:25:44.096Z,80.60
2018-03-03T01:26:17.784Z,80.30
2018-03-03T01:26:51.451Z,80.50
2018-03-03T01:27:25.902Z,80.60
2018-03-03T01:27:59.629Z,80.30
2018-03-03T01:28:33.323Z,81.20
2018-03-03T01:29:06.990Z,81.10
2018-03-03T01:29:40.671Z,81.10
2018-03-03T01:30:14.378Z,81.60
2018-03-03T01:30:48.047Z,81.10
2018-03-03T01:31:21.721Z,81.30
2018-03-03T01:31:55.433Z,81.50
2018-03-03T01:32:29.105Z,81.50
2018-03-03T01:33:02.805Z,81.70
2018-03-03T01:33:36.485Z,81.80
2018-03-03T01:34:10.169Z,81.70
2018-03-03T01:34:44.015Z,81.50
2018-03-03T01:35:17.702Z,82.10
2018-03-03T01:35:51.390Z,81.40
2018-03-03T01:36:25.077Z,81.60
2018-03-03T01:36:58.797Z,81.50
2018-03-03T01:37:33.229Z,81.00
2018-03-03T01:38:06.937Z,80.60
2018-03-03T01:38:40.609Z,80.60
2018-03-03T01:39:14.271Z,80.60
2018-03-03T01:39:48.723Z,81.50
2018-03-03T01:40:22.415Z,81.10
2018-03-03T01:40:56.093Z,81.70
2018-03-03T01:41:29.778Z,81.70
2018-03-03T01:42:03.464Z,81.90
2018-03-03T01:42:37.150Z,81.90
2018-03-03T01:43:10.915Z,81.80
2018-03-03T01:43:44.600Z,82.10
2018-03-03T01:44:18.274Z,81.30
2018-03-03T01:44:51.966Z,81.70
2018-03-03T01:45:25.672Z,81.40
2018-03-03T01:46:00.671Z,80.50
2018-03-03T01:46:34.347Z,80.30
2018-03-03T01:47:08.007Z,81.00
2018-03-03T01:47:41.692Z,81.30
2018-03-03T01:48:15.383Z,81.50
2018-03-03T01:48:49.130Z,81.70
2018-03-03T01:49:22.814Z,81.60
2018-03-03T01:49:56.515Z,81.70
2018-03-03T01:50:30.200Z,82.70
2018-03-03T01:51:03.868Z,82.80
2018-03-03T01:51:42.585Z,82.70
2018-03-03T01:52:16.267Z,82.80
2018-03-03T01:52:49.938Z,82.20
2018-03-03T01:53:23.311Z,82.40
2018-03-03T01:53:57.495Z,82.30
2018-03-03T01:54:31.186Z,82.10
2018-03-03T01:55:04.862Z,82.10
2018-03-03T01:55:39.593Z,82.80
2018-03-03T01:56:13.256Z,81.80
2018-03-03T01:56:47.713Z,83.40
2018-03-03T01:57:21.393Z,82.90
2018-03-03T01:57:55.068Z,84.00
2018-03-03T01:58:28.770Z,84.10
2018-03-03T01:59:02.460Z,84.70
2018-03-03T01:59:35.815Z,84.00
2018-03-03T02:00:09.927Z,84.00
2018-03-03T02:00:44.042Z,84.00
2018-03-03T02:01:17.400Z,84.20
2018-03-03T02:01:51.858Z,84.70
2018-03-03T02:02:25.556Z,83.40
2018-03-03T02:02:59.234Z,84.90
2018-03-03T02:03:32.947Z,84.70
2018-03-03T02:04:07.402Z,85.40
2018-03-03T02:04:41.127Z,84.40
2018-03-03T02:05:14.819Z,85.30
2018-03-03T02:05:48.503Z,85.50
2018-03-03T02:06:22.196Z,85.50
2018-03-03T02:06:55.881Z,85.50
2018-03-03T02:07:29.546Z,85.20
2018-03-03T02:08:03.246Z,85.80
2018-03-03T02:08:37.262Z,86.30
2018-03-03T02:09:10.953Z,86.10
2018-03-03T02:09:44.627Z,85.50
2018-03-03T02:10:18.303Z,85.80
2018-03-03T02:10:51.978Z,86.20
2018-03-03T02:11:25.664Z,86.30
2018-03-03T02:12:00.110Z,86.50
2018-03-03T02:12:33.786Z,85.80
2018-03-03T02:13:07.470Z,86.90
2018-03-03T02:13:41.177Z,86.60
2018-03-03T02:14:14.852Z,86.80
2018-03-03T02:14:48.543Z,86.40
2018-03-03T02:15:22.218Z,86.50
2018-03-03T02:15:55.920Z,86.60
2018-03-03T02:16:29.281Z,86.30
2018-03-03T02:17:03.731Z,85.30
2018-03-03T02:17:37.422Z,83.80
2018-03-03T02:18:11.123Z,84.60
2018-03-03T02:18:45.174Z,84.80
2018-03-03T02:19:19.632Z,85.10
2018-03-03T02:19:53.302Z,83.60
2018-03-03T02:20:26.995Z,84.60
2018-03-03T02:21:00.674Z,84.80
2018-03-03T02:21:34.350Z,83.50
2018-03-03T02:22:08.043Z,84.00
2018-03-03T02:22:41.732Z,83.90
2018-03-03T02:23:15.421Z,84.30
2018-03-03T02:23:49.134Z,84.50
2018-03-03T02:24:22.825Z,84.40
2018-03-03T02:24:56.507Z,85.00
2018-03-03T02:25:36.671Z,85.00
2018-03-03T02:26:10.347Z,85.00
2018-03-03T02:26:44.035Z,84.70
2018-03-03T02:27:17.697Z,84.90
2018-03-03T02:27:51.391Z,84.20
2018-03-03T02:28:25.078Z,84.40
2018-03-03T02:28:58.796Z,83.70
2018-03-03T02:29:32.470Z,84.10
2018-03-03T02:30:06.151Z,84.00
2018-03-03T02:30:39.840Z,84.30
2018-03-03T02:31:13.516Z,84.00
2018-03-03T02:31:47.997Z,84.10
2018-03-03T02:32:21.679Z,82.90
2018-03-03T02:32:55.354Z,84.10
2018-03-03T02:33:29.030Z,84.00
2018-03-03T02:34:02.730Z,84.10
2018-03-03T02:34:36.439Z,83.80
2018-03-03T02:35:10.113Z,84.40
2018-03-03T02:35:43.803Z,83.90
2018-03-03T02:36:17.471Z,83.90
2018-03-03T02:36:51.142Z,84.10
2018-03-03T02:37:24.835Z,84.70
2018-03-03T02:37:58.509Z,84.30
2018-03-03T02:38:32.969Z,82.90
2018-03-03T02:39:06.334Z,81.00
2018-03-03T02:39:40.002Z,82.90
2018-03-03T02:40:13.690Z,82.70
2018-03-03T02:40:47.365Z,83.10
2018-03-03T02:41:21.814Z,83.70
2018-03-03T02:41:55.515Z,82.90
2018-03-03T02:42:29.202Z,83.50
2018-03-03T02:43:02.898Z,83.90
2018-03-03T02:43:36.589Z,83.80
2018-03-03T02:44:10.290Z,83.90
2018-03-03T02:44:43.988Z,84.00
2018-03-03T02:45:17.668Z,84.10
2018-03-03T02:45:51.040Z,84.30
2018-03-03T02:46:24.729Z,84.60
2018-03-03T02:46:58.397Z,84.90
2018-03-03T02:47:32.088Z,85.00
2018-03-03T02:48:05.753Z,85.40
2018-03-03T02:48:39.430Z,85.70
2018-03-03T02:49:13.919Z,85.80
2018-03-03T02:49:47.598Z,84.70
2018-03-03T02:50:21.272Z,85.50
2018-03-03T02:50:54.938Z,86.00
2018-03-03T02:51:28.611Z,86.40
2018-03-03T02:52:03.064Z,86.40
2018-03-03T02:52:36.751Z,85.80
2018-03-03T02:53:10.440Z,86.50
2018-03-03T02:53:44.147Z,86.40
2018-03-03T02:54:17.854Z,86.00
2018-03-03T02:54:51.545Z,85.70
2018-03-03T02:55:25.215Z,85.70
2018-03-03T02:55:58.932Z,85.80
2018-03-03T02:56:33.379Z,85.70
2018-03-03T02:57:07.050Z,85.20
2018-03-03T02:57:40.721Z,86.10
2018-03-03T02:58:15.162Z,85.90
2018-03-03T02:58:48.831Z,85.30
2018-03-03T02:59:22.565Z,86.50
2018-03-03T02:59:56.251Z,86.20
2018-03-03T03:00:29.952Z,86.20
2018-03-03T03:01:03.635Z,86.20
2018-03-03T03:01:37.323Z,85.80
2018-03-03T03:02:10.337Z,85.40
2018-03-03T03:02:44.595Z,85.90
2018-03-03T03:03:18.302Z,85.30
2018-03-03T03:03:51.976Z,85.20
2018-03-03T03:04:25.683Z,84.90
2018-03-03T03:04:59.368Z,84.60
2018-03-03T03:05:33.045Z,84.50
2018-03-03T03:06:06.735Z,84.40
2018-03-03T03:06:40.412Z,84.80
2018-03-03T03:07:14.090Z,84.80
2018-03-03T03:07:47.779Z,84.60
2018-03-03T03:08:21.469Z,84.40
2018-03-03T03:08:55.134Z,84.20
2018-03-03T03:09:29.963Z,84.40
2018-03-03T03:10:03.333Z,83.50
2018-03-03T03:10:37.791Z,83.90
2018-03-03T03:11:11.479Z,83.60
2018-03-03T03:11:45.144Z,83.90
2018-03-03T03:12:18.834Z,83.80
2018-03-03T03:12:52.514Z,84.10
2018-03-03T03:13:26.951Z,83.90
2018-03-03T03:14:00.631Z,83.90
2018-03-03T03:14:34.339Z,83.80
2018-03-03T03:15:08.007Z,84.00
2018-03-03T03:15:41.371Z,84.00
2018-03-03T03:16:15.810Z,84.20
2018-03-03T03:16:49.481Z,83.80
2018-03-03T03:17:23.158Z,83.90
2018-03-03T03:17:57.629Z,83.60
2018-03-03T03:18:31.335Z,83.60
2018-03-03T03:19:05.024Z,83.80
2018-03-03T03:19:38.750Z,83.70
2018-03-03T03:20:13.386Z,84.40
2018-03-03T03:20:47.046Z,83.40
2018-03-03T03:21:20.730Z,83.70
2018-03-03T03:21:54.451Z,84.40
2018-03-03T03:22:28.137Z,84.40
2018-03-03T03:23:01.806Z,83.30
2018-03-03T03:23:35.295Z,83.20
2018-03-03T03:24:08.809Z,83.40
2018-03-03T03:24:42.522Z,82.90
2018-03-03T03:25:16.212Z,83.40
2018-03-03T03:25:49.922Z,84.30
2018-03-03T03:26:24.401Z,84.50
2018-03-03T03:26:57.909Z,83.60
2018-03-03T03:27:31.421Z,83.80
2018-03-03T03:28:05.109Z,83.50
2018-03-03T03:28:39.552Z,83.50
2018-03-03T03:29:13.264Z,82.80
2018-03-03T03:29:47.011Z,83.70
2018-03-03T03:30:20.718Z,84.00
2018-03-03T03:30:54.508Z,83.70
2018-03-03T03:31:28.201Z,84.50
2018-03-03T03:32:01.917Z,84.40
2018-03-03T03:32:35.605Z,83.80
2018-03-03T03:33:09.279Z,84.40
2018-03-03T03:33:42.975Z,84.50
2018-03-03T03:34:16.806Z,83.80
2018-03-03T03:34:51.276Z,84.60
2018-03-03T03:35:24.949Z,83.50
2018-03-03T03:35:58.670Z,85.30
2018-03-03T03:36:32.344Z,84.80
2018-03-03T03:37:06.032Z,85.60
2018-03-03T03:37:39.722Z,85.50
2018-03-03T03:38:13.425Z,84.60
2018-03-03T03:38:47.112Z,85.40
2018-03-03T03:39:20.824Z,85.20
2018-03-03T03:39:54.855Z,84.70
2018-03-03T03:40:28.526Z,85.60
2018-03-03T03:41:02.984Z,84.80
2018-03-03T03:41:36.664Z,84.90
2018-03-03T03:42:10.354Z,85.30
2018-03-03T03:42:44.054Z,84.80
2018-03-03T03:43:17.746Z,85.10
2018-03-03T03:43:51.503Z,85.90
2018-03-03T03:44:25.190Z,85.30
2018-03-03T03:45:00.006Z,85.30
2018-03-03T03:45:33.696Z,85.00
2018-03-03T03:46:08.149Z,85.60
2018-03-03T03:46:41.859Z,85.20
2018-03-03T03:47:16.302Z,85.40
2018-03-03T03:47:49.990Z,84.90
2018-03-03T03:48:24.435Z,86.10
2018-03-03T03:48:58.133Z,85.60
2018-03-03T03:49:31.858Z,85.80
2018-03-03T03:50:05.559Z,85.60
2018-03-03T03:50:40.031Z,85.90
2018-03-03T03:51:13.730Z,85.40
2018-03-03T03:51:47.423Z,86.00
2018-03-03T03:52:21.106Z,86.60
2018-03-03T03:52:54.802Z,86.80
2018-03-03T03:53:28.517Z,86.50
2018-03-03T03:54:02.985Z,86.80
2018-03-03T03:54:36.676Z,86.60
2018-03-03T03:55:10.388Z,86.50
2018-03-03T03:55:44.067Z,86.30
2018-03-03T03:56:17.943Z,86.70
2018-03-03T03:56:51.618Z,86.20
2018-03-03T03:57:25.297Z,86.30
2018-03-03T03:57:58.961Z,86.70
2018-03-03T03:58:33.235Z,87.10
2018-03-03T03:59:06.918Z,85.80
2018-03-03T03:59:40.643Z,87.30
2018-03-03T04:00:15.123Z,86.60
2018-03-03T04:00:48.465Z,85.80
2018-03-03T04:01:22.134Z,86.60
2018-03-03T04:01:56.583Z,86.70
2018-03-03T04:02:30.255Z,86.10
2018-03-03T04:03:03.922Z,87.80
2018-03-03T04:03:37.599Z,87.90
2018-03-03T04:04:12.066Z,88.40
2018-03-03T04:04:45.926Z,87.40
2018-03-03T04:05:19.914Z,88.50
2018-03-03T04:05:53.602Z,88.80
2018-03-03T04:06:27.293Z,89.00
2018-03-03T04:07:00.972Z,88.70
2018-03-03T04:07:35.425Z,88.60
2018-03-03T04:08:09.114Z,88.10
2018-03-03T04:08:42.807Z,89.20
2018-03-03T04:09:16.500Z,88.50
2018-03-03T04:09:50.182Z,88.40
2018-03-03T04:10:23.877Z,88.40
2018-03-03T04:10:57.563Z,88.30
2018-03-03T04:11:31.249Z,87.90
2018-03-03T04:12:04.944Z,88.20
2018-03-03T04:12:38.638Z,88.60
2018-03-03T04:13:12.327Z,88.50
2018-03-03T04:13:46.005Z,88.30
2018-03-03T04:14:19.704Z,87.50
2018-03-03T04:14:53.392Z,87.90
2018-03-03T04:15:27.129Z,88.40
2018-03-03T04:16:01.584Z,88.40
2018-03-03T04:16:35.263Z,87.90
2018-03-03T04:17:09.067Z,88.70
2018-03-03T04:17:42.766Z,88.50
2018-03-03T04:18:16.502Z,88.00
2018-03-03T04:18:50.954Z,88.10
2018-03-03T04:19:24.634Z,88.10
2018-03-03T04:19:58.134Z,88.10
2018-03-03T04:20:32.232Z,87.80
2018-03-03T04:21:05.924Z,87.30
2018-03-03T04:21:39.619Z,87.60
2018-03-03T04:22:13.316Z,87.80
2018-03-03T04:22:47.002Z,87.50
2018-03-03T04:23:20.708Z,87.30
2018-03-03T04:23:54.211Z,87.10
2018-03-03T04:24:27.716Z,87.00
2018-03-03T04:25:01.978Z,86.70
2018-03-03T04:25:35.813Z,85.50
2018-03-03T04:26:09.318Z,85.70
2018-03-03T04:26:42.835Z,85.70
2018-03-03T04:27:16.358Z,85.60
2018-03-03T04:27:50.634Z,85.10
2018-03-03T04:28:24.163Z,84.00
2018-03-03T04:28:58.493Z,85.00
2018-03-03T04:29:31.993Z,84.50
2018-03-03T04:30:05.491Z,84.50
2018-03-03T04:30:38.999Z,84.90
2018-03-03T04:31:13.288Z,84.80
2018-03-03T04:31:46.802Z,84.40
2018-03-03T04:32:21.071Z,84.80
2018-03-03T04:32:54.581Z,84.00
2018-03-03T04:33:28.079Z,84.70
2018-03-03T04:34:02.539Z,84.60
2018-03-03T04:34:36.230Z,84.20
2018-03-03T04:35:09.781Z,84.80
2018-03-03T04:35:43.717Z,84.70
2018-03-03T04:36:17.223Z,84.20
2018-03-03T04:36:50.730Z,84.40
2018-03-03T04:37:24.997Z,84.80
2018-03-03T04:37:58.490Z,84.40
2018-03-03T04:38:32.004Z,84.90
2018-03-03T04:39:05.046Z,84.80
2018-03-03T04:39:38.718Z,84.50
2018-03-03T04:40:12.416Z,84.90
2018-03-03T04:40:46.470Z,84.60
2018-03-03T04:41:20.943Z,85.00
2018-03-03T04:41:54.797Z,85.00
2018-03-03T04:42:28.481Z,85.10
2018-03-03T04:43:02.203Z,85.00
2018-03-03T04:43:35.710Z,85.70
2018-03-03T04:44:09.399Z,85.50
2018-03-03T04:44:42.901Z,85.60
2018-03-03T04:45:17.347Z,85.80
2018-03-03T04:45:51.151Z,85.00
2018-03-03T04:46:24.838Z,86.00
2018-03-03T04:46:58.518Z,86.20
2018-03-03T04:47:32.026Z,86.20
2018-03-03T04:48:05.535Z,86.20
2018-03-03T04:48:39.025Z,85.60
2018-03-03T04:49:12.548Z,85.20
2018-03-03T04:49:46.394Z,84.80
2018-03-03T04:50:20.431Z,85.20
2018-03-03T04:50:53.950Z,84.70
2018-03-03T04:51:27.438Z,84.80
2018-03-03T04:52:00.919Z,84.90
2018-03-03T04:52:34.431Z,84.90
2018-03-03T04:53:07.973Z,84.90
2018-03-03T04:53:41.451Z,85.00
2018-03-03T04:54:14.990Z,85.10
2018-03-03T04:54:48.485Z,85.80
2018-03-03T04:55:22.740Z,85.50
2018-03-03T04:55:56.274Z,85.00
2018-03-03T04:56:29.443Z,85.00
2018-03-03T04:57:02.963Z,84.90
2018-03-03T04:57:37.362Z,84.40
2018-03-03T04:58:11.610Z,84.90
2018-03-03T04:59:58.349Z,85.00
2018-03-03T05:00:31.870Z,84.50
2018-03-03T05:01:09.045Z,85.30
2018-03-03T05:01:48.207Z,84.90
2018-03-03T05:02:21.736Z,85.20
2018-03-03T05:03:00.894Z,84.90
2018-03-03T05:03:49.272Z,84.90
2018-03-03T05:04:28.455Z,84.90
2018-03-03T05:05:18.658Z,84.00
2018-03-03T05:06:48.414Z,84.60
2018-03-03T05:07:39.709Z,85.00
2018-03-03T05:08:28.874Z,84.80
2018-03-03T05:09:03.026Z,85.00
2018-03-03T05:09:36.518Z,84.20
2018-03-03T05:10:11.690Z,84.00
2018-03-03T05:10:45.185Z,83.90
2018-03-03T05:11:18.682Z,84.70
2018-03-03T05:11:52.190Z,84.90
2018-03-03T05:12:29.914Z,85.00
2018-03-03T05:13:24.172Z,83.80
2018-03-03T05:14:15.107Z,84.80
2018-03-03T05:16:08.349Z,85.00
2018-03-03T05:17:58.669Z,85.20
2018-03-03T05:18:37.899Z,85.20
2018-03-03T05:19:17.052Z,84.80
2018-03-03T05:19:56.207Z,85.30
2018-03-03T05:20:32.111Z,85.00
2018-03-03T05:21:12.010Z,85.30
2018-03-03T05:21:50.028Z,85.00
2018-03-03T05:22:42.069Z,84.00
2018-03-03T05:23:21.310Z,83.80
2018-03-03T05:24:00.538Z,83.00
2018-03-03T05:26:01.879Z,82.50
2018-03-03T05:26:55.086Z,83.30
2018-03-03T05:27:47.916Z,84.30
2018-03-03T05:28:27.954Z,84.90
2018-03-03T05:29:07.919Z,84.70
2018-03-03T05:29:47.229Z,84.50
2018-03-03T05:30:35.768Z,84.10
2018-03-03T05:31:27.944Z,84.00
2018-03-03T05:32:06.994Z,84.50
2018-03-03T05:33:51.420Z,84.00
2018-03-03T05:34:30.559Z,83.50
2018-03-03T05:36:19.525Z,84.00
2018-03-03T05:36:59.466Z,84.20
2018-03-03T05:37:38.530Z,84.20
2018-03-03T05:38:17.748Z,83.70
2018-03-03T05:38:56.969Z,84.20
2018-03-03T05:39:36.116Z,85.00
2018-03-03T05:40:28.187Z,84.80
2018-03-03T05:42:13.002Z,84.80
2018-03-03T05:43:05.094Z,84.80
2018-03-03T05:43:49.253Z,84.70
2018-03-03T05:44:29.126Z,84.10
2018-03-03T05:45:08.325Z,83.80
2018-03-03T05:45:48.290Z,84.20
2018-03-03T05:46:27.542Z,84.10
2018-03-03T05:48:16.899Z,84.10
2018-03-03T05:49:09.068Z,84.10
2018-03-03T05:49:48.218Z,84.00
2018-03-03T05:50:37.507Z,84.50
2018-03-03T05:51:13.848Z,84.70
2018-03-03T05:51:53.114Z,84.60
2018-03-03T05:52:32.225Z,85.00
2018-03-03T05:53:27.211Z,84.60
2018-03-03T05:54:07.266Z,85.10
2018-03-03T05:54:46.598Z,84.50
2018-03-03T05:56:36.619Z,84.20
2018-03-03T05:57:13.381Z,84.00
2018-03-03T05:57:50.495Z,84.30
2018-03-03T05:58:40.682Z,83.90
2018-03-03T05:59:35.044Z,83.80
2018-03-03T06:00:14.922Z,83.10
2018-03-03T06:00:50.210Z,83.70
2018-03-03T06:01:39.501Z,83.90
2018-03-03T06:02:16.799Z,84.10
2018-03-03T06:03:08.015Z,84.90
2018-03-03T06:05:14.422Z,84.40
2018-03-03T06:06:08.667Z,84.80
2018-03-03T06:06:49.463Z,85.10
2018-03-03T06:08:54.412Z,87.70
2018-03-03T06:09:44.759Z,88.90
2018-03-03T06:10:34.038Z,86.20
2018-03-03T06:11:07.502Z,87.40
2018-03-03T06:11:41.007Z,88.20
2018-03-03T06:12:14.725Z,87.50
2018-03-03T06:12:48.443Z,86.10
2018-03-03T06:13:22.888Z,85.00
2018-03-03T06:13:56.373Z,84.90
2018-03-03T06:14:29.863Z,84.10
2018-03-03T06:15:03.364Z,83.80
2018-03-03T06:15:37.072Z,84.30
2018-03-03T06:16:10.759Z,86.10
2018-03-03T06:16:44.247Z,85.40
2018-03-03T06:17:17.915Z,84.80
2018-03-03T06:17:51.586Z,85.10
2018-03-03T06:18:25.259Z,89.50
2018-03-03T06:18:58.927Z,85.90
2018-03-03T06:19:33.381Z,87.20
2018-03-03T06:20:06.912Z,88.60
2018-03-03T06:20:41.370Z,84.30
2018-03-03T06:21:15.054Z,83.90
2018-03-03T06:21:48.732Z,84.70
2018-03-03T06:22:22.339Z,84.60
2018-03-03T06:22:56.033Z,86.30
2018-03-03T06:23:29.756Z,86.40
2018-03-03T06:24:03.419Z,86.00
2018-03-03T06:24:37.111Z,85.40
2018-03-03T06:25:10.821Z,86.30
2018-03-03T06:25:44.506Z,86.60
2018-03-03T06:26:18.197Z,88.90
2018-03-03T06:26:51.862Z,90.50
2018-03-03T06:27:25.525Z,83.80
2018-03-03T06:27:59.207Z,83.90
2018-03-03T06:28:32.906Z,85.30
2018-03-03T06:29:06.630Z,87.60
2018-03-03T06:29:40.310Z,86.30
2018-03-03T06:30:14.030Z,92.00
2018-03-03T06:30:47.694Z,87.50
2018-03-03T06:31:21.360Z,85.70
2018-03-03T06:31:55.032Z,83.50
2018-03-03T06:32:29.488Z,84.20
2018-03-03T06:33:03.217Z,83.90
2018-03-03T06:33:37.067Z,84.10
2018-03-03T06:34:10.759Z,85.40
2018-03-03T06:34:44.443Z,85.40
2018-03-03T06:35:18.156Z,85.30
2018-03-03T06:35:53.013Z,86.80
2018-03-03T06:36:27.454Z,85.10
2018-03-03T06:37:01.121Z,85.90
2018-03-03T06:37:34.815Z,89.20
2018-03-03T06:38:08.346Z,83.80
2018-03-03T06:38:42.016Z,88.80
2018-03-03T06:39:16.479Z,86.00
2018-03-03T06:39:50.941Z,92.70
2018-03-03T06:40:24.646Z,93.30
2018-03-03T06:40:58.312Z,90.90
2018-03-03T06:41:32.022Z,92.50
2018-03-03T06:42:05.689Z,94.10
2018-03-03T06:42:39.366Z,95.80
2018-03-03T06:43:13.043Z,99.90
2018-03-03T06:43:46.725Z,99.90
2018-03-03T06:44:20.399Z,99.90
2018-03-03T06:44:54.840Z,99.90
2018-03-03T06:45:28.634Z,99.90
2018-03-03T06:46:02.306Z,99.90
2018-03-03T06:46:35.992Z,99.90
2018-03-03T06:47:09.675Z,99.90
2018-03-03T06:47:44.114Z,99.90
2018-03-03T06:48:17.778Z,99.90
2018-03-03T06:48:52.214Z,99.90
2018-03-03T06:49:25.897Z,99.90
2018-03-03T06:49:59.571Z,99.90
2018-03-03T06:50:33.414Z,99.90
2018-03-03T06:51:07.090Z,99.90
2018-03-03T06:51:40.777Z,99.90
2018-03-03T06:52:14.459Z,99.90
2018-03-03T06:52:48.130Z,99.90
2018-03-03T06:53:21.811Z,99.90
2018-03-03T06:53:55.490Z,99.90
2018-03-03T06:54:29.934Z,99.90
2018-03-03T06:55:03.613Z,99.90
2018-03-03T06:55:37.618Z,99.90
2018-03-03T06:56:11.294Z,99.90
2018-03-03T06:56:44.993Z,99.90
2018-03-03T06:57:18.660Z,99.90
2018-03-03T06:57:52.337Z,99.90
2018-03-03T06:58:26.769Z,99.90
2018-03-03T06:59:00.448Z,99.90
2018-03-03T06:59:34.143Z,99.90
2018-03-03T07:00:07.823Z,99.90
2018-03-03T07:00:41.831Z,99.90
2018-03-03T07:01:15.524Z,99.90
2018-03-03T07:01:49.187Z,99.90
2018-03-03T07:02:23.635Z,99.90
2018-03-03T07:02:57.313Z,99.90
2018-03-03T07:03:30.986Z,99.90
2018-03-03T07:04:04.680Z,99.90
2018-03-03T07:04:38.367Z,99.90
2018-03-03T07:05:12.132Z,99.90
2018-03-03T07:05:45.833Z,99.90
2018-03-03T07:06:20.270Z,99.90
2018-03-03T07:06:53.964Z,99.90
2018-03-03T07:07:27.649Z,99.90
2018-03-03T07:08:01.137Z,99.90
2018-03-03T07:08:34.640Z,99.90
2018-03-03T07:09:08.318Z,99.90
2018-03-03T07:09:41.844Z,99.90
2018-03-03T07:10:15.556Z,99.90
2018-03-03T07:10:49.740Z,99.90
2018-03-03T07:11:23.419Z,99.90
2018-03-03T07:11:57.100Z,99.90
2018-03-03T07:12:30.626Z,99.90
2018-03-03T07:13:04.906Z,99.90
2018-03-03T07:13:39.177Z,99.90
2018-03-03T07:14:12.682Z,99.90
2018-03-03T07:14:48.036Z,99.90
2018-03-03T07:15:21.535Z,99.90
2018-03-03T07:15:55.868Z,99.90
2018-03-03T07:16:29.386Z,99.90
2018-03-03T07:17:02.891Z,99.90
2018-03-03T07:17:36.576Z,99.90
2018-03-03T07:18:10.087Z,99.90
2018-03-03T07:18:44.527Z,99.90
2018-03-03T07:19:18.274Z,99.90
2018-03-03T07:19:51.951Z,99.90
2018-03-03T07:20:25.671Z,99.90
2018-03-03T07:21:00.281Z,99.90
2018-03-03T07:21:34.746Z,99.90
2018-03-03T07:22:08.092Z,99.90
2018-03-03T07:22:41.799Z,99.90
2018-03-03T07:23:15.503Z,99.90
2018-03-03T07:23:49.199Z,99.90
2018-03-03T07:24:22.870Z,99.90
2018-03-03T07:24:56.578Z,99.90
2018-03-03T07:25:30.266Z,99.90
2018-03-03T07:26:03.998Z,99.90
2018-03-03T07:26:38.169Z,99.90
2018-03-03T07:27:11.849Z,99.90
2018-03-03T07:27:45.539Z,99.90
2018-03-03T07:28:19.273Z,99.90
2018-03-03T07:28:53.122Z,99.90
2018-03-03T07:29:26.813Z,99.90
2018-03-03T07:30:00.482Z,99.90
2018-03-03T07:30:34.167Z,99.90
2018-03-03T07:31:07.876Z,99.90
2018-03-03T07:31:41.569Z,99.90
2018-03-03T07:32:15.255Z,99.90
2018-03-03T07:32:48.957Z,99.90
2018-03-03T07:33:22.635Z,99.90
2018-03-03T07:33:56.039Z,99.90
2018-03-03T07:34:29.710Z,99.90
2018-03-03T07:35:03.380Z,99.90
2018-03-03T07:35:37.066Z,99.90
2018-03-03T07:36:11.036Z,99.90
2018-03-03T07:36:45.495Z,99.90
2018-03-03T07:37:19.178Z,99.90
2018-03-03T07:37:52.849Z,99.90
2018-03-03T07:38:26.538Z,99.90
2018-03-03T07:39:00.216Z,99.90
2018-03-03T07:39:33.909Z,99.90
2018-03-03T07:40:07.581Z,99.90
2018-03-03T07:40:42.039Z,99.90